Time;durP1;ratioP1;P1;durP2;ratioP2;P2;SDS_P1;SDS_P2;PMS_P1;PMS_P2;Temp;Humidity;BMP_temperature;BMP_pressure;BME280_temperature;BME280_humidity;BME280_pressure;Samples;Min_cycle;Max_cycle;Signal;HPM_P1;HPM_P2
2022/01/14 00:01:53;;;;;;;;;29.00;26.00;;;;;1.93;68.94;101935.44;5099116;27;45269;-68
2022/01/14 00:04:19;;;;;;;;;25.75;21.00;;;;;1.86;68.20;101922.81;5097854;27;46307;-69
2022/01/14 00:06:44;;;;;;;;;25.50;22.50;;;;;1.93;68.32;101938.94;5098867;27;45453;-69
2022/01/14 00:09:12;;;;;;;;;18.75;16.75;;;;;1.89;68.48;101941.09;5098957;27;45464;-69
2022/01/14 00:11:41;;;;;;;;;27.50;19.50;;;;;1.86;68.11;101927.97;5098931;27;45503;-69
2022/01/14 00:16:33;;;;;;;;;15.50;12.00;;;;;1.87;67.18;101933.25;5098356;27;45725;-69
2022/01/14 00:18:59;;;;;;;;;35.00;30.50;;;;;1.77;68.39;101923.81;5098696;27;45159;-70
2022/01/14 00:21:25;;;;;;;;;18.75;15.75;;;;;1.83;68.09;101927.69;5098964;27;45403;-70
2022/01/14 00:23:54;;;;;;;;;26.25;20.00;;;;;1.78;68.65;101938.50;5098855;27;46062;-70
2022/01/14 00:31:54;;;;;;;;;20.25;18.25;;;;;1.57;69.36;101914.34;5098626;27;45356;-69
2022/01/14 00:34:19;;;;;;;;;22.25;15.50;;;;;1.59;68.63;101927.34;5098655;27;45394;-70
2022/01/14 00:36:45;;;;;;;;;33.25;27.25;;;;;1.58;68.12;101923.88;5098308;27;45495;-68
2022/01/14 00:39:13;;;;;;;;;28.75;22.25;;;;;1.65;67.61;101935.63;5098545;27;45401;-69
2022/01/14 00:41:39;;;;;;;;;22.25;19.75;;;;;1.66;67.23;101929.69;5098591;27;45456;-69
2022/01/14 00:44:10;;;;;;;;;22.75;16.00;;;;;1.69;68.01;101936.78;5098351;27;45383;-70
2022/01/14 00:46:38;;;;;;;;;22.50;19.75;;;;;1.59;68.50;101925.69;5098227;27;45480;-70
2022/01/14 00:49:04;;;;;;;;;15.25;13.50;;;;;1.65;67.96;101938.22;5098297;27;45389;-69
2022/01/14 00:51:29;;;;;;;;;12.25;10.75;;;;;1.64;67.67;101944.09;5098437;27;45392;-69
2022/01/14 00:53:55;;;;;;;;;41.50;32.50;;;;;1.65;68.08;101945.00;5098411;27;45551;-69
2022/01/14 01:01:58;;;;;;;;;11.50;11.00;;;;;1.63;66.61;101955.16;5035396;28;45357;-69
2022/01/14 01:04:31;;;;;;;;;12.50;11.25;;;;;1.66;66.38;101963.19;5034880;28;46120;-69
2022/01/14 01:06:58;;;;;;;;;30.50;26.00;;;;;1.65;66.32;101956.25;5067872;27;45426;-70
2022/01/14 01:09:25;;;;;;;;;24.00;18.75;;;;;1.66;66.10;101959.72;5098258;27;45443;-70
2022/01/14 01:14:45;;;;;;;;;34.25;30.00;;;;;1.74;65.72;101969.00;5097693;27;45381;-69
2022/01/14 01:17:11;;;;;;;;;1.50;1.50;;;;;1.61;65.66;101948.97;5097778;27;45541;-69
2022/01/14 01:19:37;;;;;;;;;2.50;2.00;;;;;1.71;65.66;101968.72;5097838;27;45427;-70
2022/01/14 01:22:03;;;;;;;;;5.75;5.00;;;;;1.61;65.23;101938.66;5098095;27;45457;-69
2022/01/14 01:24:29;;;;;;;;;10.00;8.50;;;;;1.64;65.85;101953.53;5096438;27;47785;-69
2022/01/14 01:26:55;;;;;;;;;1.00;0.00;;;;;1.72;63.77;101961.13;5098286;27;46108;-69
2022/01/14 01:31:54;;;;;;;;;64.75;53.00;;;;;1.75;66.18;101958.84;5097910;27;45361;-70
2022/01/14 01:34:23;;;;;;;;;78.25;59.00;;;;;1.72;66.69;101953.41;5097598;27;46231;-69
2022/01/14 01:36:53;;;;;;;;;37.75;30.75;;;;;1.69;66.15;101958.31;5097407;27;45438;-69
2022/01/14 01:39:22;;;;;;;;;40.75;35.50;;;;;1.66;65.83;101952.88;5097646;27;45460;-69
2022/01/14 01:41:50;;;;;;;;;33.00;27.00;;;;;1.54;65.06;101923.47;5097980;27;45590;-70
2022/01/14 01:44:18;;;;;;;;;39.00;36.50;;;;;1.67;64.96;101949.53;5097480;27;46222;-70
2022/01/14 01:46:47;;;;;;;;;23.50;17.75;;;;;1.64;65.16;101949.25;5097455;27;45311;-70
2022/01/14 01:49:14;;;;;;;;;11.25;10.25;;;;;1.64;64.33;101954.41;5097552;27;45269;-69
2022/01/14 01:51:43;;;;;;;;;11.00;11.00;;;;;1.56;64.89;101945.09;5097615;27;45265;-70
2022/01/14 01:54:09;;;;;;;;;14.25;11.00;;;;;1.51;65.70;101941.22;5097325;27;46202;-70
2022/01/14 01:56:35;;;;;;;;;4.50;2.50;;;;;1.55;65.13;101954.50;5097278;27;45274;-70
2022/01/14 01:59:00;;;;;;;;;2.00;2.00;;;;;1.54;64.20;101957.84;5097376;27;45382;-69
2022/01/14 02:01:26;;;;;;;;;1.25;1.25;;;;;1.42;64.43;101941.31;5096337;27;45520;-69
2022/01/14 02:03:55;;;;;;;;;2.50;2.00;;;;;1.44;63.76;101957.81;5096986;27;46054;-69
2022/01/14 02:06:22;;;;;;;;;5.00;3.00;;;;;1.53;64.05;101968.94;5097147;27;45499;-70
2022/01/14 02:08:48;;;;;;;;;6.75;6.25;;;;;1.40;63.52;101958.28;5097292;27;45349;-70
2022/01/14 02:11:14;;;;;;;;;10.50;9.25;;;;;1.54;62.97;101959.53;5100087;27;45467;-70
2022/01/14 02:13:40;;;;;;;;;11.00;10.75;;;;;1.51;64.30;101972.13;5100662;27;45478;-70
2022/01/14 02:18:59;;;;;;;;;13.00;8.50;;;;;1.51;63.42;101983.34;5100722;27;45608;-70
2022/01/14 02:26:54;;;;;;;;;11.25;8.00;;;;;1.43;64.91;101979.16;5100592;27;45366;-69
2022/01/14 02:29:22;;;;;;;;;11.25;10.00;;;;;1.24;64.85;101938.00;5100646;27;45490;-69
2022/01/14 02:31:49;;;;;;;;;15.25;12.00;;;;;1.36;64.72;101971.66;5100553;27;45590;-69
2022/01/14 02:34:16;;;;;;;;;17.50;16.00;;;;;1.37;65.03;101971.81;5100216;27;46035;-69
2022/01/14 02:36:44;;;;;;;;;42.50;31.75;;;;;1.34;65.00;101962.91;5100322;27;45437;-70
2022/01/14 02:39:12;;;;;;;;;26.25;20.50;;;;;1.28;63.13;101952.94;5100474;27;45355;-70
2022/01/14 02:41:40;;;;;;;;;18.25;15.25;;;;;1.28;63.96;101960.66;5099251;27;45520;-69
2022/01/14 02:44:19;;;;;;;;;4.00;4.00;;;;;1.14;63.88;101938.84;5100265;27;45509;-70
2022/01/14 02:46:55;;;;;;;;;29.25;22.50;;;;;1.27;63.38;101964.00;5100101;27;45391;-70
2022/01/14 02:49:22;;;;;;;;;15.50;15.25;;;;;1.26;65.14;101957.06;5100267;27;45381;-70
2022/01/14 02:51:48;;;;;;;;;15.75;12.25;;;;;1.14;65.83;101944.00;5098923;27;45545;-70
2022/01/14 02:54:20;;;;;;;;;28.25;25.50;;;;;1.19;65.04;101949.53;5099837;27;45490;-69
2022/01/14 02:56:51;;;;;;;;;75.75;56.00;;;;;1.21;65.36;101954.84;5099588;27;45386;-69
2022/01/14 02:59:18;;;;;;;;;34.50;30.25;;;;;1.21;65.58;101955.72;5099911;27;45289;-70
2022/01/14 03:01:49;;;;;;;;;31.00;25.75;;;;;1.16;66.24;101947.59;5100453;27;45346;-70
2022/01/14 03:04:16;;;;;;;;;20.50;15.75;;;;;1.13;65.66;101951.56;5099979;27;45359;-69
2022/01/14 03:06:42;;;;;;;;;21.50;16.25;;;;;1.10;66.29;101953.88;5099888;27;45465;-69
2022/01/14 03:09:09;;;;;;;;;41.00;32.00;;;;;1.01;65.29;101935.03;5100196;27;45343;-69
2022/01/14 03:11:43;;;;;;;;;45.50;39.50;;;;;1.06;65.53;101952.69;5099789;27;45568;-69
2022/01/14 03:14:10;;;;;;;;;39.00;35.25;;;;;1.05;65.73;101948.28;5099479;27;46215;-70
2022/01/14 03:16:40;;;;;;;;;43.50;35.75;;;;;0.95;65.13;101931.09;5099725;27;45658;-69
2022/01/14 03:19:11;;;;;;;;;42.75;34.25;;;;;1.04;65.74;101953.31;5099854;27;45369;-69
2022/01/14 03:21:40;;;;;;;;;49.00;37.50;;;;;1.04;65.43;101945.59;5097163;27;45499;-69
2022/01/14 03:27:11;;;;;;;;;54.00;42.25;;;;;0.98;64.06;101933.97;5056368;28;45379;-69
2022/01/14 03:29:36;;;;;;;;;27.75;21.50;;;;;1.07;64.57;101933.88;5056643;28;45355;-69
2022/01/14 03:32:03;;;;;;;;;26.00;20.75;;;;;1.09;63.92;101939.19;5076790;27;45527;-69
2022/01/14 03:34:30;;;;;;;;;25.50;21.75;;;;;1.08;63.96;101935.72;5099479;27;46712;-68
2022/01/14 03:36:56;;;;;;;;;1.00;1.00;;;;;0.92;61.96;101907.69;5099612;27;45360;-69
2022/01/14 03:39:22;;;;;;;;;9.50;8.50;;;;;1.09;63.33;101941.75;5098200;27;45300;-69
2022/01/14 03:41:48;;;;;;;;;23.00;14.75;;;;;1.08;63.48;101935.72;5099700;27;45426;-70
2022/01/14 03:44:14;;;;;;;;;38.00;34.00;;;;;1.06;63.76;101939.81;5099283;27;46193;-69
2022/01/14 03:46:40;;;;;;;;;80.50;57.25;;;;;1.05;63.71;101942.25;5099420;27;45468;-70
2022/01/14 03:49:06;;;;;;;;;30.25;21.25;;;;;1.05;63.30;101935.44;5099341;27;45377;-69
2022/01/14 03:51:31;;;;;;;;;27.50;23.25;;;;;0.99;63.98;101940.03;5099573;27;45468;-70
2022/01/14 03:53:57;;;;;;;;;21.25;18.75;;;;;0.94;64.00;101924.19;5098972;27;45526;-69
2022/01/14 03:56:23;;;;;;;;;18.25;14.00;;;;;1.02;63.32;101942.00;5097531;27;45334;-70
2022/01/14 03:58:49;;;;;;;;;11.75;9.25;;;;;1.03;63.02;101942.09;5099099;27;45471;-69
2022/01/14 04:01:15;;;;;;;;;17.25;15.00;;;;;1.06;63.14;101939.81;5099440;27;45352;-69
2022/01/14 04:03:42;;;;;;;;;16.25;14.00;;;;;0.93;62.43;101911.16;5098998;27;46146;-69
2022/01/14 04:06:10;;;;;;;;;1.25;1.25;;;;;1.10;62.69;101941.91;5099039;27;45455;-69
2022/01/14 04:08:37;;;;;;;;;21.75;19.00;;;;;1.00;62.51;101916.13;5099273;27;45349;-69
2022/01/14 04:11:03;;;;;;;;;8.75;8.25;;;;;1.04;62.55;101912.16;5099519;27;45494;-70
2022/01/14 04:16:16;;;;;;;;;4.00;2.00;;;;;1.15;61.90;101929.44;5098666;27;45497;-69
2022/01/14 04:18:42;;;;;;;;;5.50;4.75;;;;;1.15;61.60;101925.22;5098847;27;45204;-69
2022/01/14 04:21:08;;;;;;;;;4.50;4.00;;;;;1.19;60.97;101927.31;5099087;27;45364;-68
2022/01/14 04:23:33;;;;;;;;;3.50;1.50;;;;;1.24;60.66;101924.22;5099168;27;45421;-68
2022/01/14 04:25:59;;;;;;;;;4.50;2.00;;;;;1.25;59.37;101903.75;5098705;27;45390;-68
2022/01/14 04:28:30;;;;;;;;;4.00;4.00;;;;;1.44;59.60;101918.28;5098955;27;45416;-70
2022/01/14 04:30:56;;;;;;;;;1.00;1.00;;;;;1.51;59.75;101928.34;5098939;27;45559;-69
2022/01/14 04:33:24;;;;;;;;;0.00;0.00;;;;;1.62;58.08;101927.63;5098065;27;45291;-70
2022/01/14 04:35:50;;;;;;;;;0.00;0.00;;;;;1.73;56.12;101924.31;5098283;27;45459;-69
2022/01/14 04:38:16;;;;;;;;;1.75;1.25;;;;;1.70;55.22;101893.13;5098251;27;45531;-69
2022/01/14 04:40:42;;;;;;;;;7.50;6.50;;;;;1.92;55.23;101911.34;5098562;27;45441;-69
2022/01/14 04:43:08;;;;;;;;;2.00;1.00;;;;;1.99;55.07;101912.81;5098763;27;45940;-70
2022/01/14 04:48:09;;;;;;;;;0.50;0.00;;;;;2.12;54.34;101915.63;5098590;27;45460;-70
2022/01/14 04:50:35;;;;;;;;;0.00;0.00;;;;;2.17;53.53;101909.22;5098905;27;45345;-69
2022/01/14 04:53:01;;;;;;;;;0.00;0.00;;;;;2.23;53.77;101913.06;5097949;27;46181;-69
2022/01/14 04:55:28;;;;;;;;;0.00;0.00;;;;;2.20;51.83;101903.41;5098071;27;45285;-69
2022/01/14 04:57:56;;;;;;;;;0.00;0.00;;;;;2.31;54.10;101912.06;5096936;27;45858;-69
2022/01/14 05:00:27;;;;;;;;;16.75;13.75;;;;;2.34;51.87;101920.06;5098297;27;45361;-70
2022/01/14 05:02:54;;;;;;;;;0.75;0.00;;;;;2.33;52.65;101905.38;5098114;27;45602;-69
2022/01/14 05:05:23;;;;;;;;;0.25;0.00;;;;;2.38;51.54;101909.22;5096622;27;45525;-70
2022/01/14 05:07:50;;;;;;;;;0.00;0.00;;;;;2.42;49.32;101894.91;5097891;27;45481;-69
2022/01/14 05:12:45;;;;;;;;;0.00;0.00;;;;;2.49;49.35;101892.09;5097912;27;45924;-70
2022/01/14 05:15:13;;;;;;;;;0.00;0.00;;;;;2.59;49.88;101889.50;5098040;27;45399;-69
2022/01/14 05:17:38;;;;;;;;;0.00;0.00;;;;;2.59;48.60;101885.25;5098553;27;45388;-70
2022/01/14 05:20:05;;;;;;;;;1.00;0.00;;;;;2.62;47.96;101878.53;5096812;27;45345;-69
2022/01/14 05:22:31;;;;;;;;;0.00;0.00;;;;;2.70;48.25;101878.38;5097566;27;45687;-70
2022/01/14 05:24:57;;;;;;;;;0.00;0.00;;;;;2.77;47.31;101896.19;5097610;27;45344;-70
2022/01/14 05:27:23;;;;;;;;;0.00;0.00;;;;;2.76;47.76;101898.63;5097972;27;45305;-69
2022/01/14 05:29:49;;;;;;;;;0.00;0.00;;;;;2.71;48.63;101897.38;5098114;27;45259;-70
2022/01/14 05:32:15;;;;;;;;;29.25;26.00;;;;;2.66;49.95;101886.63;5097166;27;45446;-70
2022/01/14 05:34:45;;;;;;;;;0.00;0.00;;;;;2.62;49.85;101875.94;5097912;27;45440;-69
2022/01/14 05:37:11;;;;;;;;;0.00;0.00;;;;;2.70;49.14;101899.00;5097883;27;45388;-70
2022/01/14 05:39:38;;;;;;;;;0.00;0.00;;;;;2.64;50.25;101902.78;5097879;27;45506;-70
2022/01/14 05:42:04;;;;;;;;;3.00;2.00;;;;;2.56;50.67;101907.28;5097262;27;46036;-70
2022/01/14 05:44:31;;;;;;;;;5.75;5.25;;;;;2.49;50.78;101892.09;5097695;27;45468;-69
2022/01/14 05:46:58;;;;;;;;;8.00;8.00;;;;;2.48;51.81;101916.06;5101027;27;45762;-68
2022/01/14 05:49:24;;;;;;;;;4.00;2.00;;;;;2.39;52.06;101911.94;5100359;27;45441;-69
2022/01/14 05:51:50;;;;;;;;;2.00;1.25;;;;;2.28;51.81;101899.78;5100278;27;45574;-68
2022/01/14 05:54:16;;;;;;;;;2.00;2.00;;;;;2.25;52.64;101912.44;5099809;27;45428;-69
2022/01/14 05:56:42;;;;;;;;;4.00;3.00;;;;;2.21;53.15;101912.03;5100467;27;45187;-69
2022/01/14 05:59:08;;;;;;;;;22.00;20.50;;;;;2.18;52.44;101910.09;5100729;27;45356;-69
2022/01/14 06:01:34;;;;;;;;;9.00;6.00;;;;;2.17;52.37;101913.47;5100064;27;46025;-70
2022/01/14 06:04:03;;;;;;;;;7.50;5.00;;;;;2.16;52.09;101907.38;5097132;27;45386;-68
2022/01/14 06:06:30;;;;;;;;;3.00;3.00;;;;;2.17;51.66;101903.16;5100185;27;45416;-70
2022/01/14 06:08:55;;;;;;;;;4.75;4.25;;;;;2.17;51.78;101905.75;5100058;27;45660;-69
2022/01/14 06:11:22;;;;;;;;;3.50;2.00;;;;;2.10;51.95;101890.50;5099646;27;45566;-70
2022/01/14 06:13:47;;;;;;;;;2.00;2.00;;;;;2.03;52.01;101886.50;5100010;27;45528;-69
2022/01/14 06:16:14;;;;;;;;;5.25;4.00;;;;;2.13;52.05;101912.31;5100558;27;46390;-70
2022/01/14 06:18:40;;;;;;;;;9.00;8.00;;;;;2.06;52.38;101914.22;5100511;27;45479;-70
2022/01/14 06:21:06;;;;;;;;;4.00;4.00;;;;;2.11;52.30;101916.44;5098384;27;45659;-70
2022/01/14 06:23:32;;;;;;;;;4.00;2.00;;;;;2.16;52.04;101912.53;5099321;27;45507;-69
2022/01/14 06:25:58;;;;;;;;;4.00;4.00;;;;;2.21;51.57;101914.63;5099835;27;45255;-69
2022/01/14 06:28:24;;;;;;;;;1.50;1.25;;;;;2.15;51.67;101894.41;5100099;27;45458;-69
2022/01/14 06:30:50;;;;;;;;;4.00;2.00;;;;;2.23;51.63;101907.91;5099607;27;45919;-69
2022/01/14 06:33:16;;;;;;;;;2.00;1.00;;;;;2.24;51.28;101909.72;5100336;27;45326;-68
2022/01/14 06:35:41;;;;;;;;;0.00;0.00;;;;;2.25;51.54;101908.94;5100531;27;45293;-67
2022/01/14 06:38:07;;;;;;;;;1.00;0.00;;;;;2.25;50.86;101914.09;5100496;27;45450;-69
2022/01/14 06:40:33;;;;;;;;;2.00;1.00;;;;;2.29;50.52;101905.84;5099220;27;46189;-69
2022/01/14 06:43:00;;;;;;;;;0.00;0.00;;;;;2.31;49.53;101910.38;5099452;27;45515;-67
2022/01/14 06:45:26;;;;;;;;;1.00;1.00;;;;;2.29;50.79;101919.66;5099927;27;45472;-68
2022/01/14 06:47:51;;;;;;;;;4.00;2.00;;;;;2.28;51.03;101922.13;5099657;27;45488;-68
2022/01/14 06:50:17;;;;;;;;;2.00;1.00;;;;;2.34;50.71;101917.47;5099747;27;45562;-70
2022/01/14 06:52:43;;;;;;;;;1.75;1.75;;;;;2.38;50.87;101920.44;5099285;27;45491;-69
2022/01/14 06:55:09;;;;;;;;;3.00;3.00;;;;;2.38;51.05;101919.53;5097915;27;45272;-70
2022/01/14 06:57:35;;;;;;;;;2.00;2.00;;;;;2.33;51.23;101919.16;5099606;27;45531;-69
2022/01/14 07:00:05;;;;;;;;;4.00;4.00;;;;;2.33;50.82;101921.75;5099926;27;46220;-69
2022/01/14 07:02:31;;;;;;;;;1.00;1.00;;;;;2.37;49.30;101928.06;5098994;27;45333;-69
2022/01/14 07:04:56;;;;;;;;;4.00;2.00;;;;;2.37;48.98;101921.22;5099217;27;45403;-70
2022/01/14 07:07:22;;;;;;;;;1.00;1.00;;;;;2.35;49.53;101921.88;5099150;27;45316;-69
2022/01/14 07:09:56;;;;;;;;;0.00;0.00;;;;;2.38;49.49;101916.97;5098907;27;45562;-69
2022/01/14 07:12:26;;;;;;;;;7.00;7.00;;;;;2.39;51.16;101923.94;5099491;27;45432;-68
2022/01/14 07:14:53;;;;;;;;;0.00;0.00;;;;;2.37;50.69;101928.97;5099899;27;45408;-70
2022/01/14 07:17:19;;;;;;;;;1.00;1.00;;;;;2.29;50.87;101914.50;5099913;27;45446;-70
2022/01/14 07:19:46;;;;;;;;;1.00;1.00;;;;;2.24;50.87;101913.22;5099782;27;46259;-71
2022/01/14 07:22:13;;;;;;;;;6.00;5.00;;;;;2.29;50.52;101917.09;5099740;27;45391;-70
2022/01/14 07:24:38;;;;;;;;;15.25;12.00;;;;;2.32;50.13;101921.59;5098333;27;45373;-70
2022/01/14 07:27:04;;;;;;;;;22.25;19.50;;;;;2.24;50.57;101909.72;5099588;27;45319;-69
2022/01/14 07:29:29;;;;;;;;;46.25;39.00;;;;;2.36;49.67;101928.81;5097555;27;45485;-70
2022/01/14 07:31:55;;;;;;;;;9.25;8.25;;;;;2.39;49.19;101930.00;5099101;27;45503;-70
2022/01/14 07:34:20;;;;;;;;;1.00;1.00;;;;;2.44;49.87;101932.94;5099336;27;45431;-70
2022/01/14 07:36:46;;;;;;;;;0.00;0.00;;;;;2.46;49.46;101928.81;5099840;27;45357;-68
2022/01/14 07:39:11;;;;;;;;;1.00;0.25;;;;;2.53;50.17;101936.31;5099044;27;45477;-70
2022/01/14 07:41:37;;;;;;;;;0.00;0.00;;;;;2.54;50.53;101938.09;5099080;27;45452;-69
2022/01/14 07:44:04;;;;;;;;;30.00;24.00;;;;;2.49;51.18;101935.94;5099243;27;45304;-69
2022/01/14 07:46:30;;;;;;;;;27.25;26.75;;;;;2.48;50.57;101939.28;5099208;27;45571;-68
2022/01/14 07:48:55;;;;;;;;;7.50;6.00;;;;;2.49;49.59;101944.56;5098611;27;45578;-68
2022/01/14 07:51:21;;;;;;;;;20.50;17.00;;;;;2.47;51.13;101935.81;5098933;27;45394;-68
2022/01/14 07:53:46;;;;;;;;;33.50;26.50;;;;;2.44;51.34;101953.59;5099398;27;45327;-70
2022/01/14 07:56:13;;;;;;;;;32.25;24.25;;;;;2.38;52.29;101948.81;5099743;27;45297;-71
2022/01/14 07:58:40;;;;;;;;;12.75;11.00;;;;;2.37;52.16;101956.44;5100200;27;45492;-71
2022/01/14 08:01:06;;;;;;;;;5.00;2.00;;;;;2.33;51.58;101938.88;5100626;27;45547;-75
2022/01/14 08:03:31;;;;;;;;;6.00;6.00;;;;;2.44;51.17;101956.16;5094720;27;46152;-71
2022/01/14 08:05:58;;;;;;;;;8.00;4.25;;;;;2.44;51.16;101948.41;5095250;27;45527;-71
2022/01/14 08:08:24;;;;;;;;;10.00;6.00;;;;;2.42;50.84;101936.19;5095468;27;45496;-72
2022/01/14 08:10:49;;;;;;;;;8.50;7.00;;;;;2.56;51.88;101958.88;5083884;27;45498;-71
2022/01/14 08:13:15;;;;;;;;;9.25;8.50;;;;;2.53;51.49;101950.91;5092991;27;45498;-71
2022/01/14 08:15:41;;;;;;;;;3.00;3.00;;;;;2.63;51.16;101966.38;5088091;27;46150;-70
2022/01/14 08:18:07;;;;;;;;;3.50;2.50;;;;;2.65;48.51;101957.09;5080208;27;45472;-71
2022/01/14 08:20:33;;;;;;;;;11.50;8.50;;;;;2.75;49.79;101954.50;5087555;27;45417;-71
2022/01/14 08:22:59;;;;;;;;;25.75;19.75;;;;;2.86;50.17;101965.72;5086120;27;45478;-71
2022/01/14 08:25:25;;;;;;;;;38.75;27.50;;;;;2.81;50.64;101943.78;5084457;27;45323;-72
2022/01/14 08:27:51;;;;;;;;;63.25;48.75;;;;;2.95;47.65;101950.09;5085662;27;45542;-71
2022/01/14 08:30:17;;;;;;;;;47.75;35.50;;;;;3.18;48.17;101959.72;5082939;27;45505;-71
2022/01/14 08:32:42;;;;;;;;;56.25;45.00;;;;;3.29;47.62;101974.44;5085811;27;45572;-71
2022/01/14 08:35:09;;;;;;;;;54.75;43.75;;;;;3.36;48.03;101974.19;5078665;27;45564;-71
2022/01/14 08:37:36;;;;;;;;;25.50;19.50;;;;;3.46;48.29;101983.59;5086699;27;45486;-71
2022/01/14 08:40:02;;;;;;;;;31.50;25.00;;;;;3.50;48.09;101959.81;5082420;27;45437;-71
2022/01/14 08:42:27;;;;;;;;;44.50;37.75;;;;;3.63;48.42;101976.28;5085099;27;45374;-71
2022/01/14 08:44:53;;;;;;;;;26.25;20.50;;;;;3.53;48.15;101941.94;5091841;27;45452;-71
2022/01/14 08:47:18;;;;;;;;;21.00;17.75;;;;;3.81;48.10;101970.00;5084489;27;46165;-72
2022/01/14 08:49:44;;;;;;;;;15.75;14.50;;;;;3.97;46.59;101964.38;5082607;27;45398;-72
2022/01/14 08:52:12;;;;;;;;;3.00;2.75;;;;;4.09;45.83;101962.75;5108772;27;45423;-72
2022/01/14 08:54:38;;;;;;;;;1.75;1.00;;;;;4.32;45.25;101966.25;5093871;27;45467;-70
2022/01/14 08:57:03;;;;;;;;;1.50;1.00;;;;;4.55;45.17;101957.66;5088780;27;45314;-71
2022/01/14 08:59:32;;;;;;;;;1.00;1.00;;;;;4.77;45.69;101952.44;5092175;27;45581;-70
2022/01/14 09:01:59;;;;;;;;;1.00;1.00;;;;;5.10;44.33;101971.31;5096179;27;45423;-71
2022/01/14 09:04:24;;;;;;;;;1.25;0.50;;;;;5.31;42.21;101962.56;5091884;27;45513;-71
2022/01/14 09:06:50;;;;;;;;;3.00;2.00;;;;;5.44;42.55;101968.63;5093297;27;46439;-71
2022/01/14 09:09:16;;;;;;;;;1.00;1.00;;;;;5.54;43.04;101963.31;5088382;27;45527;-70
2022/01/14 09:11:41;;;;;;;;;1.50;1.00;;;;;5.66;41.69;101966.81;5085091;27;45546;-71
2022/01/14 09:14:07;;;;;;;;;2.00;2.00;;;;;5.67;41.58;101958.25;5082725;27;45504;-72
2022/01/14 09:16:33;;;;;;;;;5.00;5.00;;;;;5.78;41.57;101949.53;5091007;27;45980;-71
2022/01/14 09:18:59;;;;;;;;;6.00;5.00;;;;;5.97;41.59;101956.09;5082076;27;45480;-72
2022/01/14 09:21:25;;;;;;;;;16.00;11.00;;;;;6.03;41.19;101943.56;5082964;27;45291;-71
2022/01/14 09:24:03;;;;;;;;;19.50;16.00;;;;;6.21;40.69;101936.16;5082402;27;45475;-71
2022/01/14 09:26:35;;;;;;;;;20.50;18.25;;;;;6.55;40.88;101956.66;5087486;27;45604;-71
2022/01/14 09:29:02;;;;;;;;;11.00;8.50;;;;;6.75;40.14;101953.72;5092729;27;45462;-71
2022/01/14 09:31:29;;;;;;;;;9.00;9.00;;;;;7.59;40.24;101954.00;5083935;27;45441;-71
2022/01/14 09:33:55;;;;;;;;;29.00;22.00;;;;;11.50;36.01;101920.44;5088746;27;45505;-72
2022/01/14 09:36:21;;;;;;;;;12.50;11.25;;;;;14.82;31.40;101921.91;5090141;27;45539;-71
2022/01/14 09:38:47;;;;;;;;;12.25;11.00;;;;;17.06;26.79;101907.59;5088179;27;45516;-71
2022/01/14 09:41:14;;;;;;;;;26.75;23.75;;;;;18.52;24.58;101890.53;5079697;27;45406;-71
2022/01/14 09:43:40;;;;;;;;;46.00;34.25;;;;;19.81;23.55;101898.84;5085651;27;45433;-71
2022/01/14 09:46:08;;;;;;;;;50.25;39.00;;;;;20.70;21.90;101899.03;5084691;27;45487;-71
2022/01/14 09:48:34;;;;;;;;;37.25;33.25;;;;;21.25;21.48;101880.03;5096018;27;45471;-71
2022/01/14 09:51:01;;;;;;;;;32.25;30.00;;;;;21.74;20.79;101872.34;5093108;27;45888;-71
2022/01/14 09:53:28;;;;;;;;;11.00;10.00;;;;;22.49;19.43;101892.19;5083717;27;45534;-71
2022/01/14 09:55:54;;;;;;;;;7.00;7.00;;;;;22.93;20.26;101883.34;5088271;27;45406;-71
2022/01/14 09:58:23;;;;;;;;;3.00;2.00;;;;;23.29;19.43;101894.91;5090232;27;45594;-71
2022/01/14 10:00:49;;;;;;;;;4.67;4.00;;;;;23.55;18.94;101893.06;5081550;27;45450;-72
2022/01/14 10:03:25;;;;;;;;;5.00;3.00;;;;;23.59;19.92;101892.16;5087718;27;45804;-72
2022/01/14 10:05:57;;;;;;;;;3.33;3.33;;;;;23.71;18.08;101880.56;5087719;27;46205;-71
2022/01/14 10:08:26;;;;;;;;;3.67;3.00;;;;;24.02;17.74;101889.38;5091692;27;45562;-72
2022/01/14 10:10:56;;;;;;;;;4.00;4.00;;;;;24.16;18.11;101896.44;5090026;27;45291;-72
2022/01/14 10:13:33;;;;;;;;;8.33;5.33;;;;;24.28;18.52;101887.50;5088831;27;45524;-73
2022/01/14 10:16:10;;;;;;;;;7.00;6.00;;;;;24.40;18.27;101893.63;5092544;27;45589;-72
2022/01/14 10:18:38;;;;;;;;;8.67;7.67;;;;;24.46;17.38;101899.84;5089522;27;45357;-72
2022/01/14 10:21:06;;;;;;;;;10.33;8.00;;;;;24.53;18.43;101890.91;5085358;27;45423;-72
2022/01/14 10:23:44;;;;;;;;;4.33;4.00;;;;;24.61;17.62;101898.00;5093355;27;46226;-72
2022/01/14 10:26:11;;;;;;;;;10.00;10.00;;;;;24.59;16.90;101886.44;5077030;27;45404;-72
2022/01/14 10:28:37;;;;;;;;;8.67;8.67;;;;;24.56;16.48;101890.91;5082135;27;45384;-72
2022/01/14 10:31:05;;;;;;;;;10.00;9.00;;;;;24.30;16.85;101881.25;5082470;27;45404;-72
2022/01/14 10:33:31;;;;;;;;;14.00;10.67;;;;;24.32;17.57;101892.78;5088483;27;45349;-72
2022/01/14 10:35:57;;;;;;;;;6.00;5.33;;;;;24.23;17.89;101876.81;5080087;27;46003;-72
2022/01/14 10:38:25;;;;;;;;;5.67;5.67;;;;;24.20;17.37;101888.41;5093950;27;45495;-72
2022/01/14 10:40:54;;;;;;;;;7.00;6.00;;;;;24.22;18.02;101893.75;5086392;27;45915;-71
2022/01/14 10:43:22;;;;;;;;;16.67;14.00;;;;;24.01;17.38;101879.63;5087323;27;45556;-73
2022/01/14 10:45:48;;;;;;;;;14.33;13.33;;;;;24.08;17.43;101887.59;5090401;27;45567;-73
2022/01/14 10:48:32;;;;;;;;;13.33;11.67;;;;;23.90;16.94;101883.22;5090564;27;46297;-73
2022/01/14 10:51:07;;;;;;;;;17.00;15.00;;;;;23.74;17.50;101882.38;5080744;27;45471;-72
2022/01/14 10:53:41;;;;;;;;;16.00;14.00;;;;;23.65;17.58;101877.91;5088236;27;45444;-72
2022/01/14 10:56:12;;;;;;;;;10.33;9.00;;;;;23.51;18.25;101888.63;5092714;27;45566;-73
2022/01/14 10:58:43;;;;;;;;;15.00;10.67;;;;;23.29;17.65;101873.56;5087956;27;45384;-72
2022/01/14 11:01:12;;;;;;;;;14.33;12.67;;;;;23.07;17.66;101873.59;5084635;27;46122;-73
2022/01/14 11:03:47;;;;;;;;;14.00;10.67;;;;;22.92;17.97;101886.88;5087381;27;45458;-72
2022/01/14 11:06:32;;;;;;;;;18.33;14.67;;;;;22.80;18.32;101890.41;5081414;27;46199;-71
2022/01/14 11:09:07;;;;;;;;;17.00;14.33;;;;;22.57;19.16;101885.09;5088023;27;45515;-73
2022/01/14 11:11:38;;;;;;;;;17.33;17.00;;;;;22.43;18.76;101883.28;5094965;27;46012;-73
2022/01/14 11:14:05;;;;;;;;;16.33;15.67;;;;;22.35;19.35;101882.38;5081590;27;46332;-73
2022/01/14 11:16:31;;;;;;;;;12.33;10.67;;;;;21.78;19.15;101871.47;5096287;27;45895;-73
2022/01/14 11:19:00;;;;;;;;;6.33;5.67;;;;;20.98;19.78;101881.56;5094384;27;45299;-73
2022/01/14 11:24:15;;;;;;;;;3.00;3.00;;;;;18.94;20.99;101871.91;5095910;27;45405;-74
2022/01/14 11:26:43;;;;;;;;;5.67;4.67;;;;;18.14;24.25;101878.31;5091189;27;45373;-73
2022/01/14 11:29:15;;;;;;;;;6.00;5.00;;;;;17.45;24.03;101859.22;5090782;27;45380;-72
2022/01/14 11:31:42;;;;;;;;;4.33;4.00;;;;;16.96;23.58;101865.09;5096008;27;45483;-75
2022/01/14 11:34:30;;;;;;;;;2.00;2.00;;;;;16.52;24.18;101872.72;5095317;27;45571;-72
2022/01/14 11:37:03;;;;;;;;;3.00;2.00;;;;;16.27;23.79;101869.41;5095121;27;46387;-73
2022/01/14 11:39:32;;;;;;;;;4.00;3.00;;;;;15.97;23.99;101849.22;5097268;27;45368;-72
2022/01/14 11:42:12;;;;;;;;;5.67;5.67;;;;;15.83;23.57;101854.09;5097372;27;45456;-73
2022/01/14 11:45:05;;;;;;;;;3.67;3.00;;;;;15.82;24.87;101860.22;5097687;27;45469;-73
2022/01/14 11:47:38;;;;;;;;;5.00;5.00;;;;;15.74;24.40;101866.09;5097956;27;46175;-72
2022/01/14 11:50:27;;;;;;;;;5.67;4.67;;;;;15.69;25.71;101863.31;5098348;27;45457;-72
2022/01/14 11:52:53;;;;;;;;;7.00;6.00;;;;;15.67;25.14;101851.84;5097996;27;45405;-72
2022/01/14 11:55:21;;;;;;;;;4.00;4.00;;;;;15.65;26.27;101843.88;5099175;27;45614;-72
2022/01/14 11:57:46;;;;;;;;;7.00;7.00;;;;;15.59;24.48;101843.69;5099118;27;45418;-73
2022/01/14 12:00:27;;;;;;;;;4.00;4.00;;;;;15.54;25.55;101849.66;5098800;27;45300;-73
2022/01/14 12:02:54;;;;;;;;;3.67;2.67;;;;;15.50;25.45;101844.31;5097501;27;45405;-71
2022/01/14 12:05:30;;;;;;;;;6.67;5.00;;;;;15.40;25.40;101830.81;5082577;27;45384;-73
2022/01/14 12:08:02;;;;;;;;;28.75;24.50;;;;;15.40;26.71;101849.25;5087172;27;45589;-72